sensor_id;sensor_type;location;lat;lon;timestamp;P1;durP1;ratioP1;P2;durP2;ratioP2
12155;SDS011;6141;49.092;8.516;2023-07-28T00:00:36;4.47;;;2.80;;
12155;SDS011;6141;49.092;8.516;2023-07-28T00:03:05;3.93;;;3.23;;
12155;SDS011;6141;49.092;8.516;2023-07-28T00:05:33;3.40;;;3.10;;
12155;SDS011;6141;49.092;8.516;2023-07-28T00:08:01;5.13;;;2.97;;
12155;SDS011;6141;49.092;8.516;2023-07-28T00:10:29;4.03;;;3.10;;
12155;SDS011;6141;49.092;8.516;2023-07-28T00:12:57;5.37;;;3.33;;
12155;SDS011;6141;49.092;8.516;2023-07-28T00:15:27;5.87;;;3.20;;
12155;SDS011;6141;49.092;8.516;2023-07-28T00:17:57;3.17;;;2.87;;
12155;SDS011;6141;49.092;8.516;2023-07-28T00:20:26;7.53;;;3.30;;
12155;SDS011;6141;49.092;8.516;2023-07-28T00:22:54;3.00;;;2.70;;
12155;SDS011;6141;49.092;8.516;2023-07-28T00:25:22;3.47;;;2.87;;
12155;SDS011;6141;49.092;8.516;2023-07-28T00:27:50;4.80;;;2.83;;
12155;SDS011;6141;49.092;8.516;2023-07-28T00:30:18;3.07;;;2.77;;
12155;SDS011;6141;49.092;8.516;2023-07-28T00:32:46;5.47;;;3.20;;
12155;SDS011;6141;49.092;8.516;2023-07-28T00:35:16;5.97;;;3.10;;
12155;SDS011;6141;49.092;8.516;2023-07-28T00:37:44;3.53;;;2.93;;
12155;SDS011;6141;49.092;8.516;2023-07-28T00:40:12;3.90;;;2.73;;
12155;SDS011;6141;49.092;8.516;2023-07-28T00:42:40;3.63;;;2.50;;
12155;SDS011;6141;49.092;8.516;2023-07-28T00:45:08;4.40;;;2.60;;
12155;SDS011;6141;49.092;8.516;2023-07-28T00:47:37;3.27;;;2.77;;
12155;SDS011;6141;49.092;8.516;2023-07-28T00:50:05;5.70;;;2.97;;
12155;SDS011;6141;49.092;8.516;2023-07-28T00:52:37;4.07;;;2.87;;
12155;SDS011;6141;49.092;8.516;2023-07-28T00:55:05;5.60;;;3.27;;
12155;SDS011;6141;49.092;8.516;2023-07-28T00:57:34;4.57;;;3.10;;
12155;SDS011;6141;49.092;8.516;2023-07-28T01:00:02;4.83;;;3.00;;
12155;SDS011;6141;49.092;8.516;2023-07-28T01:02:32;3.63;;;3.00;;
12155;SDS011;6141;49.092;8.516;2023-07-28T01:05:00;4.67;;;3.07;;
12155;SDS011;6141;49.092;8.516;2023-07-28T01:07:30;3.47;;;2.90;;
12155;SDS011;6141;49.092;8.516;2023-07-28T01:10:10;4.77;;;3.20;;
12155;SDS011;6141;49.092;8.516;2023-07-28T01:12:42;3.80;;;2.70;;
12155;SDS011;6141;49.092;8.516;2023-07-28T01:15:10;4.47;;;3.30;;
12155;SDS011;6141;49.092;8.516;2023-07-28T01:17:41;5.93;;;3.27;;
12155;SDS011;6141;49.092;8.516;2023-07-28T01:20:09;5.40;;;3.50;;
12155;SDS011;6141;49.092;8.516;2023-07-28T01:22:48;3.97;;;2.80;;
12155;SDS011;6141;49.092;8.516;2023-07-28T01:25:36;4.13;;;3.27;;
12155;SDS011;6141;49.092;8.516;2023-07-28T01:28:16;3.63;;;3.30;;
12155;SDS011;6141;49.092;8.516;2023-07-28T01:30:45;5.00;;;3.47;;
12155;SDS011;6141;49.092;8.516;2023-07-28T01:33:13;4.50;;;2.90;;
12155;SDS011;6141;49.092;8.516;2023-07-28T01:35:41;3.03;;;2.73;;
12155;SDS011;6141;49.092;8.516;2023-07-28T01:38:09;4.03;;;3.07;;
12155;SDS011;6141;49.092;8.516;2023-07-28T01:40:38;4.63;;;3.17;;
12155;SDS011;6141;49.092;8.516;2023-07-28T01:43:06;5.57;;;3.27;;
12155;SDS011;6141;49.092;8.516;2023-07-28T01:45:36;3.97;;;2.90;;
12155;SDS011;6141;49.092;8.516;2023-07-28T01:48:04;4.57;;;2.53;;
12155;SDS011;6141;49.092;8.516;2023-07-28T01:50:34;5.53;;;2.80;;
12155;SDS011;6141;49.092;8.516;2023-07-28T01:53:03;4.70;;;3.00;;
12155;SDS011;6141;49.092;8.516;2023-07-28T01:55:32;3.93;;;2.97;;
12155;SDS011;6141;49.092;8.516;2023-07-28T01:58:00;3.57;;;3.10;;
12155;SDS011;6141;49.092;8.516;2023-07-28T02:00:29;4.47;;;3.00;;
12155;SDS011;6141;49.092;8.516;2023-07-28T02:02:58;3.63;;;2.50;;
12155;SDS011;6141;49.092;8.516;2023-07-28T02:05:28;4.60;;;2.97;;
12155;SDS011;6141;49.092;8.516;2023-07-28T02:07:57;4.00;;;3.00;;
12155;SDS011;6141;49.092;8.516;2023-07-28T02:10:26;3.40;;;3.10;;
12155;SDS011;6141;49.092;8.516;2023-07-28T02:12:54;4.27;;;3.27;;
12155;SDS011;6141;49.092;8.516;2023-07-28T02:15:22;4.27;;;3.13;;
12155;SDS011;6141;49.092;8.516;2023-07-28T02:17:50;4.87;;;3.00;;
12155;SDS011;6141;49.092;8.516;2023-07-28T02:20:20;3.27;;;2.97;;
12155;SDS011;6141;49.092;8.516;2023-07-28T02:22:48;6.23;;;3.30;;
12155;SDS011;6141;49.092;8.516;2023-07-28T02:25:16;3.30;;;2.77;;
12155;SDS011;6141;49.092;8.516;2023-07-28T02:27:44;8.07;;;3.50;;
12155;SDS011;6141;49.092;8.516;2023-07-28T02:30:12;3.73;;;2.93;;
12155;SDS011;6141;49.092;8.516;2023-07-28T02:32:40;7.20;;;3.40;;
12155;SDS011;6141;49.092;8.516;2023-07-28T02:35:08;5.70;;;3.13;;
12155;SDS011;6141;49.092;8.516;2023-07-28T02:37:38;5.97;;;3.50;;
12155;SDS011;6141;49.092;8.516;2023-07-28T02:40:06;3.80;;;2.77;;
12155;SDS011;6141;49.092;8.516;2023-07-28T02:42:35;5.90;;;2.90;;
12155;SDS011;6141;49.092;8.516;2023-07-28T02:45:04;5.87;;;3.17;;
12155;SDS011;6141;49.092;8.516;2023-07-28T02:47:32;4.07;;;3.10;;
12155;SDS011;6141;49.092;8.516;2023-07-28T02:50:00;6.27;;;3.20;;
12155;SDS011;6141;49.092;8.516;2023-07-28T02:52:28;5.43;;;3.23;;
12155;SDS011;6141;49.092;8.516;2023-07-28T02:54:58;5.57;;;3.20;;
12155;SDS011;6141;49.092;8.516;2023-07-28T02:57:27;4.33;;;3.10;;
12155;SDS011;6141;49.092;8.516;2023-07-28T02:59:55;4.23;;;3.10;;
12155;SDS011;6141;49.092;8.516;2023-07-28T03:02:24;3.17;;;2.87;;
12155;SDS011;6141;49.092;8.516;2023-07-28T03:04:54;3.47;;;3.10;;
12155;SDS011;6141;49.092;8.516;2023-07-28T03:07:23;3.77;;;3.43;;
12155;SDS011;6141;49.092;8.516;2023-07-28T03:09:58;4.37;;;3.17;;
12155;SDS011;6141;49.092;8.516;2023-07-28T03:12:27;4.27;;;3.07;;
12155;SDS011;6141;49.092;8.516;2023-07-28T03:14:55;4.27;;;3.47;;
12155;SDS011;6141;49.092;8.516;2023-07-28T03:17:23;3.50;;;3.20;;
12155;SDS011;6141;49.092;8.516;2023-07-28T03:19:52;4.77;;;2.80;;
12155;SDS011;6141;49.092;8.516;2023-07-28T03:22:20;3.70;;;3.30;;
12155;SDS011;6141;49.092;8.516;2023-07-28T03:24:48;4.77;;;3.00;;
12155;SDS011;6141;49.092;8.516;2023-07-28T03:27:17;3.67;;;2.73;;
12155;SDS011;6141;49.092;8.516;2023-07-28T03:29:45;3.17;;;2.97;;
12155;SDS011;6141;49.092;8.516;2023-07-28T03:32:15;4.47;;;3.13;;
12155;SDS011;6141;49.092;8.516;2023-07-28T03:34:44;3.93;;;3.07;;
12155;SDS011;6141;49.092;8.516;2023-07-28T03:37:17;4.17;;;3.07;;
12155;SDS011;6141;49.092;8.516;2023-07-28T03:39:45;3.07;;;2.77;;
12155;SDS011;6141;49.092;8.516;2023-07-28T03:42:14;3.00;;;2.70;;
12155;SDS011;6141;49.092;8.516;2023-07-28T03:44:44;5.27;;;3.57;;
12155;SDS011;6141;49.092;8.516;2023-07-28T03:47:12;3.73;;;3.13;;
12155;SDS011;6141;49.092;8.516;2023-07-28T03:49:40;4.67;;;3.60;;
12155;SDS011;6141;49.092;8.516;2023-07-28T03:52:08;4.77;;;3.67;;
12155;SDS011;6141;49.092;8.516;2023-07-28T03:54:36;4.73;;;3.63;;
12155;SDS011;6141;49.092;8.516;2023-07-28T03:57:04;3.93;;;3.63;;
12155;SDS011;6141;49.092;8.516;2023-07-28T03:59:33;6.43;;;3.47;;
12155;SDS011;6141;49.092;8.516;2023-07-28T04:02:02;6.40;;;4.37;;
12155;SDS011;6141;49.092;8.516;2023-07-28T04:04:30;5.23;;;3.77;;
12155;SDS011;6141;49.092;8.516;2023-07-28T04:06:59;5.53;;;4.17;;
12155;SDS011;6141;49.092;8.516;2023-07-28T04:09:27;8.83;;;4.07;;
12155;SDS011;6141;49.092;8.516;2023-07-28T04:11:55;5.03;;;4.00;;
12155;SDS011;6141;49.092;8.516;2023-07-28T04:14:23;5.83;;;4.40;;
12155;SDS011;6141;49.092;8.516;2023-07-28T04:16:51;4.13;;;3.70;;
12155;SDS011;6141;49.092;8.516;2023-07-28T04:19:20;5.00;;;3.70;;
12155;SDS011;6141;49.092;8.516;2023-07-28T04:21:48;5.90;;;3.80;;
12155;SDS011;6141;49.092;8.516;2023-07-28T04:24:16;5.97;;;4.10;;
12155;SDS011;6141;49.092;8.516;2023-07-28T04:26:46;5.57;;;4.10;;
12155;SDS011;6141;49.092;8.516;2023-07-28T04:29:17;6.97;;;4.00;;
12155;SDS011;6141;49.092;8.516;2023-07-28T04:31:46;6.93;;;4.53;;
12155;SDS011;6141;49.092;8.516;2023-07-28T04:34:26;5.00;;;4.40;;
12155;SDS011;6141;49.092;8.516;2023-07-28T04:37:11;5.63;;;4.33;;
12155;SDS011;6141;49.092;8.516;2023-07-28T04:40:07;5.80;;;4.73;;
12155;SDS011;6141;49.092;8.516;2023-07-28T04:42:37;7.97;;;4.80;;
12155;SDS011;6141;49.092;8.516;2023-07-28T04:45:06;6.27;;;4.60;;
12155;SDS011;6141;49.092;8.516;2023-07-28T04:47:35;5.67;;;4.40;;
12155;SDS011;6141;49.092;8.516;2023-07-28T04:50:07;8.83;;;5.07;;
12155;SDS011;6141;49.092;8.516;2023-07-28T04:53:08;7.07;;;4.67;;
12155;SDS011;6141;49.092;8.516;2023-07-28T04:56:12;8.10;;;4.30;;
12155;SDS011;6141;49.092;8.516;2023-07-28T04:58:40;7.63;;;4.60;;
12155;SDS011;6141;49.092;8.516;2023-07-28T05:01:08;5.97;;;4.30;;
12155;SDS011;6141;49.092;8.516;2023-07-28T05:03:37;6.77;;;4.70;;
12155;SDS011;6141;49.092;8.516;2023-07-28T05:06:19;5.40;;;4.83;;
12155;SDS011;6141;49.092;8.516;2023-07-28T05:08:47;6.03;;;4.93;;
12155;SDS011;6141;49.092;8.516;2023-07-28T05:11:22;5.07;;;4.67;;
12155;SDS011;6141;49.092;8.516;2023-07-28T05:13:51;7.10;;;4.93;;
12155;SDS011;6141;49.092;8.516;2023-07-28T05:16:19;8.03;;;4.93;;
12155;SDS011;6141;49.092;8.516;2023-07-28T05:19:13;5.70;;;4.47;;
12155;SDS011;6141;49.092;8.516;2023-07-28T05:22:01;6.70;;;5.10;;
12155;SDS011;6141;49.092;8.516;2023-07-28T05:24:42;5.47;;;4.53;;
12155;SDS011;6141;49.092;8.516;2023-07-28T05:27:11;5.57;;;4.50;;
12155;SDS011;6141;49.092;8.516;2023-07-28T05:29:43;5.93;;;5.03;;
12155;SDS011;6141;49.092;8.516;2023-07-28T05:32:11;5.13;;;4.63;;
12155;SDS011;6141;49.092;8.516;2023-07-28T05:35:01;7.13;;;4.57;;
12155;SDS011;6141;49.092;8.516;2023-07-28T05:37:30;5.10;;;4.60;;
12155;SDS011;6141;49.092;8.516;2023-07-28T05:39:58;5.73;;;5.20;;
12155;SDS011;6141;49.092;8.516;2023-07-28T05:42:27;6.00;;;4.67;;
12155;SDS011;6141;49.092;8.516;2023-07-28T05:44:55;5.40;;;4.90;;
12155;SDS011;6141;49.092;8.516;2023-07-28T05:47:23;4.43;;;4.03;;
12155;SDS011;6141;49.092;8.516;2023-07-28T05:49:51;4.10;;;3.70;;
12155;SDS011;6141;49.092;8.516;2023-07-28T05:52:20;4.10;;;3.70;;
12155;SDS011;6141;49.092;8.516;2023-07-28T05:54:51;3.40;;;3.10;;
12155;SDS011;6141;49.092;8.516;2023-07-28T05:57:19;4.40;;;3.97;;
12155;SDS011;6141;49.092;8.516;2023-07-28T05:59:47;4.43;;;4.10;;
12155;SDS011;6141;49.092;8.516;2023-07-28T06:02:15;4.07;;;3.67;;
12155;SDS011;6141;49.092;8.516;2023-07-28T06:04:55;4.27;;;3.87;;
12155;SDS011;6141;49.092;8.516;2023-07-28T06:07:23;3.50;;;3.20;;
12155;SDS011;6141;49.092;8.516;2023-07-28T06:09:54;4.47;;;3.03;;
12155;SDS011;6141;49.092;8.516;2023-07-28T06:12:22;3.57;;;3.27;;
12155;SDS011;6141;49.092;8.516;2023-07-28T06:14:50;3.53;;;3.20;;
12155;SDS011;6141;49.092;8.516;2023-07-28T06:17:19;3.37;;;3.07;;
12155;SDS011;6141;49.092;8.516;2023-07-28T06:19:47;3.07;;;2.80;;
12155;SDS011;6141;49.092;8.516;2023-07-28T06:22:15;4.77;;;2.70;;
12155;SDS011;6141;49.092;8.516;2023-07-28T06:24:45;3.30;;;2.63;;
12155;SDS011;6141;49.092;8.516;2023-07-28T06:27:14;3.63;;;3.10;;
12155;SDS011;6141;49.092;8.516;2023-07-28T06:29:43;3.20;;;2.90;;
12155;SDS011;6141;49.092;8.516;2023-07-28T06:32:11;3.07;;;2.83;;
12155;SDS011;6141;49.092;8.516;2023-07-28T06:34:39;3.77;;;2.93;;
12155;SDS011;6141;49.092;8.516;2023-07-28T06:37:07;3.00;;;2.70;;
12155;SDS011;6141;49.092;8.516;2023-07-28T06:39:36;2.90;;;2.70;;
12155;SDS011;6141;49.092;8.516;2023-07-28T06:42:04;2.80;;;2.60;;
12155;SDS011;6141;49.092;8.516;2023-07-28T06:44:38;2.80;;;2.60;;
12155;SDS011;6141;49.092;8.516;2023-07-28T06:47:06;2.57;;;2.33;;
12155;SDS011;6141;49.092;8.516;2023-07-28T06:49:34;2.87;;;2.60;;
12155;SDS011;6141;49.092;8.516;2023-07-28T06:52:02;2.60;;;2.40;;
12155;SDS011;6141;49.092;8.516;2023-07-28T06:54:31;2.63;;;2.33;;
12155;SDS011;6141;49.092;8.516;2023-07-28T06:57:00;2.37;;;2.17;;
12155;SDS011;6141;49.092;8.516;2023-07-28T06:59:28;5.23;;;2.53;;
12155;SDS011;6141;49.092;8.516;2023-07-28T07:01:57;2.83;;;2.20;;
12155;SDS011;6141;49.092;8.516;2023-07-28T07:04:26;2.50;;;2.30;;
12155;SDS011;6141;49.092;8.516;2023-07-28T07:06:54;3.33;;;2.20;;
12155;SDS011;6141;49.092;8.516;2023-07-28T07:09:22;2.80;;;2.30;;
12155;SDS011;6141;49.092;8.516;2023-07-28T07:11:51;2.30;;;2.10;;
12155;SDS011;6141;49.092;8.516;2023-07-28T07:14:19;2.73;;;2.23;;
12155;SDS011;6141;49.092;8.516;2023-07-28T07:16:48;2.50;;;2.07;;
12155;SDS011;6141;49.092;8.516;2023-07-28T07:19:17;2.00;;;1.90;;
12155;SDS011;6141;49.092;8.516;2023-07-28T07:21:46;1.80;;;1.60;;
12155;SDS011;6141;49.092;8.516;2023-07-28T07:24:15;2.13;;;1.93;;
12155;SDS011;6141;49.092;8.516;2023-07-28T07:26:43;1.73;;;1.63;;
12155;SDS011;6141;49.092;8.516;2023-07-28T07:29:11;2.07;;;1.87;;
12155;SDS011;6141;49.092;8.516;2023-07-28T07:31:40;2.07;;;1.87;;
12155;SDS011;6141;49.092;8.516;2023-07-28T07:34:08;2.60;;;1.93;;
12155;SDS011;6141;49.092;8.516;2023-07-28T07:36:37;2.00;;;1.90;;
12155;SDS011;6141;49.092;8.516;2023-07-28T07:39:05;2.50;;;2.30;;
12155;SDS011;6141;49.092;8.516;2023-07-28T07:41:34;2.03;;;1.83;;
12155;SDS011;6141;49.092;8.516;2023-07-28T07:44:02;1.97;;;1.87;;
12155;SDS011;6141;49.092;8.516;2023-07-28T07:46:31;3.40;;;2.20;;
12155;SDS011;6141;49.092;8.516;2023-07-28T07:48:59;1.90;;;1.80;;
12155;SDS011;6141;49.092;8.516;2023-07-28T07:51:27;2.73;;;2.23;;
12155;SDS011;6141;49.092;8.516;2023-07-28T07:53:56;2.57;;;2.00;;
12155;SDS011;6141;49.092;8.516;2023-07-28T07:56:24;3.10;;;2.20;;
12155;SDS011;6141;49.092;8.516;2023-07-28T07:58:52;1.80;;;1.70;;
12155;SDS011;6141;49.092;8.516;2023-07-28T08:01:21;3.10;;;2.13;;
12155;SDS011;6141;49.092;8.516;2023-07-28T08:03:49;2.37;;;1.90;;
12155;SDS011;6141;49.092;8.516;2023-07-28T08:06:17;2.63;;;1.93;;
12155;SDS011;6141;49.092;8.516;2023-07-28T08:08:45;2.80;;;2.10;;
12155;SDS011;6141;49.092;8.516;2023-07-28T08:11:14;3.53;;;1.90;;
12155;SDS011;6141;49.092;8.516;2023-07-28T08:13:42;2.13;;;1.93;;
12155;SDS011;6141;49.092;8.516;2023-07-28T08:16:11;2.33;;;1.70;;
12155;SDS011;6141;49.092;8.516;2023-07-28T08:18:40;2.03;;;1.87;;
12155;SDS011;6141;49.092;8.516;2023-07-28T08:21:08;2.43;;;2.10;;
12155;SDS011;6141;49.092;8.516;2023-07-28T08:23:36;1.93;;;1.70;;
12155;SDS011;6141;49.092;8.516;2023-07-28T08:26:04;2.03;;;1.80;;
12155;SDS011;6141;49.092;8.516;2023-07-28T08:28:34;2.20;;;2.00;;
12155;SDS011;6141;49.092;8.516;2023-07-28T08:31:02;2.37;;;1.90;;
12155;SDS011;6141;49.092;8.516;2023-07-28T08:33:30;2.30;;;2.10;;
12155;SDS011;6141;49.092;8.516;2023-07-28T08:35:58;2.13;;;1.80;;
12155;SDS011;6141;49.092;8.516;2023-07-28T08:38:30;2.10;;;1.87;;
12155;SDS011;6141;49.092;8.516;2023-07-28T08:40:58;1.90;;;1.80;;
12155;SDS011;6141;49.092;8.516;2023-07-28T08:43:26;3.40;;;2.37;;
12155;SDS011;6141;49.092;8.516;2023-07-28T08:45:56;2.20;;;2.00;;
12155;SDS011;6141;49.092;8.516;2023-07-28T08:48:24;2.00;;;1.83;;
12155;SDS011;6141;49.092;8.516;2023-07-28T08:50:53;2.07;;;1.93;;
12155;SDS011;6141;49.092;8.516;2023-07-28T08:53:21;1.87;;;1.77;;
12155;SDS011;6141;49.092;8.516;2023-07-28T08:55:49;1.93;;;1.83;;
12155;SDS011;6141;49.092;8.516;2023-07-28T08:58:17;2.40;;;1.87;;
12155;SDS011;6141;49.092;8.516;2023-07-28T09:00:46;4.90;;;2.10;;
12155;SDS011;6141;49.092;8.516;2023-07-28T09:03:18;2.37;;;1.63;;
12155;SDS011;6141;49.092;8.516;2023-07-28T09:05:47;2.77;;;1.93;;
12155;SDS011;6141;49.092;8.516;2023-07-28T09:08:15;3.20;;;1.93;;
12155;SDS011;6141;49.092;8.516;2023-07-28T09:10:44;5.20;;;1.80;;
12155;SDS011;6141;49.092;8.516;2023-07-28T09:13:15;3.60;;;1.93;;
12155;SDS011;6141;49.092;8.516;2023-07-28T09:15:44;1.80;;;1.70;;
12155;SDS011;6141;49.092;8.516;2023-07-28T09:18:14;2.27;;;1.50;;
12155;SDS011;6141;49.092;8.516;2023-07-28T09:20:47;3.60;;;1.77;;
12155;SDS011;6141;49.092;8.516;2023-07-28T09:23:15;2.73;;;2.37;;
12155;SDS011;6141;49.092;8.516;2023-07-28T09:25:43;2.10;;;1.90;;
12155;SDS011;6141;49.092;8.516;2023-07-28T09:28:11;6.17;;;2.03;;
12155;SDS011;6141;49.092;8.516;2023-07-28T09:30:44;1.90;;;1.60;;
12155;SDS011;6141;49.092;8.516;2023-07-28T09:33:13;2.50;;;1.80;;
12155;SDS011;6141;49.092;8.516;2023-07-28T09:35:57;2.73;;;1.70;;
12155;SDS011;6141;49.092;8.516;2023-07-28T09:38:34;2.80;;;1.67;;
12155;SDS011;6141;49.092;8.516;2023-07-28T09:41:05;4.17;;;1.73;;
12155;SDS011;6141;49.092;8.516;2023-07-28T09:43:34;3.53;;;2.00;;
12155;SDS011;6141;49.092;8.516;2023-07-28T09:46:03;1.60;;;1.50;;
12155;SDS011;6141;49.092;8.516;2023-07-28T09:48:33;2.73;;;2.00;;
12155;SDS011;6141;49.092;8.516;2023-07-28T09:51:06;1.80;;;1.70;;
12155;SDS011;6141;49.092;8.516;2023-07-28T09:53:40;1.80;;;1.70;;
12155;SDS011;6141;49.092;8.516;2023-07-28T09:56:14;2.30;;;1.70;;
12155;SDS011;6141;49.092;8.516;2023-07-28T09:58:44;1.67;;;1.57;;
12155;SDS011;6141;49.092;8.516;2023-07-28T10:01:17;1.73;;;1.63;;
12155;SDS011;6141;49.092;8.516;2023-07-28T10:03:46;2.60;;;2.10;;
12155;SDS011;6141;49.092;8.516;2023-07-28T10:06:16;3.97;;;2.00;;
12155;SDS011;6141;49.092;8.516;2023-07-28T10:08:44;2.50;;;1.90;;
12155;SDS011;6141;49.092;8.516;2023-07-28T10:11:14;2.20;;;2.00;;
12155;SDS011;6141;49.092;8.516;2023-07-28T10:13:43;2.03;;;1.70;;
12155;SDS011;6141;49.092;8.516;2023-07-28T10:16:13;2.00;;;1.80;;
12155;SDS011;6141;49.092;8.516;2023-07-28T10:18:41;2.47;;;2.03;;
12155;SDS011;6141;49.092;8.516;2023-07-28T10:21:21;2.00;;;1.80;;
12155;SDS011;6141;49.092;8.516;2023-07-28T10:23:54;3.50;;;2.00;;
12155;SDS011;6141;49.092;8.516;2023-07-28T10:26:30;1.80;;;1.70;;
12155;SDS011;6141;49.092;8.516;2023-07-28T10:29:09;2.07;;;1.77;;
12155;SDS011;6141;49.092;8.516;2023-07-28T10:31:48;2.30;;;2.00;;
12155;SDS011;6141;49.092;8.516;2023-07-28T10:34:17;2.27;;;2.00;;
12155;SDS011;6141;49.092;8.516;2023-07-28T10:36:56;2.13;;;1.93;;
12155;SDS011;6141;49.092;8.516;2023-07-28T10:39:26;3.37;;;1.83;;
12155;SDS011;6141;49.092;8.516;2023-07-28T10:42:01;1.90;;;1.80;;
12155;SDS011;6141;49.092;8.516;2023-07-28T10:44:31;1.93;;;1.70;;
12155;SDS011;6141;49.092;8.516;2023-07-28T10:47:00;2.10;;;1.90;;
12155;SDS011;6141;49.092;8.516;2023-07-28T10:49:28;2.53;;;1.80;;
12155;SDS011;6141;49.092;8.516;2023-07-28T10:51:58;2.73;;;1.70;;
12155;SDS011;6141;49.092;8.516;2023-07-28T10:54:26;2.80;;;1.90;;
12155;SDS011;6141;49.092;8.516;2023-07-28T10:56:54;2.63;;;2.40;;
12155;SDS011;6141;49.092;8.516;2023-07-28T10:59:23;2.10;;;1.90;;
12155;SDS011;6141;49.092;8.516;2023-07-28T11:01:51;3.37;;;1.90;;
12155;SDS011;6141;49.092;8.516;2023-07-28T11:04:19;1.77;;;1.60;;
12155;SDS011;6141;49.092;8.516;2023-07-28T11:06:50;3.97;;;1.77;;
12155;SDS011;6141;49.092;8.516;2023-07-28T11:09:22;3.33;;;1.83;;
12155;SDS011;6141;49.092;8.516;2023-07-28T11:11:50;2.73;;;1.57;;
12155;SDS011;6141;49.092;8.516;2023-07-28T11:14:19;1.97;;;1.80;;
12155;SDS011;6141;49.092;8.516;2023-07-28T11:16:48;2.47;;;1.80;;
12155;SDS011;6141;49.092;8.516;2023-07-28T11:19:17;2.57;;;1.77;;
12155;SDS011;6141;49.092;8.516;2023-07-28T11:21:52;1.93;;;1.70;;
12155;SDS011;6141;49.092;8.516;2023-07-28T11:24:21;2.13;;;1.83;;
12155;SDS011;6141;49.092;8.516;2023-07-28T11:26:50;3.90;;;1.80;;
12155;SDS011;6141;49.092;8.516;2023-07-28T11:29:18;2.07;;;1.70;;
12155;SDS011;6141;49.092;8.516;2023-07-28T11:31:47;2.80;;;1.90;;
12155;SDS011;6141;49.092;8.516;2023-07-28T11:34:16;2.97;;;1.90;;
12155;SDS011;6141;49.092;8.516;2023-07-28T11:36:44;2.87;;;2.10;;
12155;SDS011;6141;49.092;8.516;2023-07-28T11:39:12;5.33;;;2.00;;
12155;SDS011;6141;49.092;8.516;2023-07-28T11:41:43;2.50;;;2.27;;
12155;SDS011;6141;49.092;8.516;2023-07-28T11:44:14;2.27;;;2.00;;
12155;SDS011;6141;49.092;8.516;2023-07-28T11:46:44;3.23;;;2.30;;
12155;SDS011;6141;49.092;8.516;2023-07-28T11:49:13;3.00;;;2.33;;
12155;SDS011;6141;49.092;8.516;2023-07-28T11:51:46;2.57;;;2.37;;
12155;SDS011;6141;49.092;8.516;2023-07-28T11:54:16;3.70;;;2.10;;
12155;SDS011;6141;49.092;8.516;2023-07-28T11:56:50;2.20;;;2.00;;
12155;SDS011;6141;49.092;8.516;2023-07-28T11:59:19;4.33;;;2.23;;
12155;SDS011;6141;49.092;8.516;2023-07-28T12:01:55;3.20;;;2.70;;
12155;SDS011;6141;49.092;8.516;2023-07-28T12:04:27;3.20;;;2.50;;
12155;SDS011;6141;49.092;8.516;2023-07-28T12:07:00;2.63;;;2.43;;
12155;SDS011;6141;49.092;8.516;2023-07-28T12:09:30;3.10;;;2.57;;
12155;SDS011;6141;49.092;8.516;2023-07-28T12:12:00;4.30;;;2.73;;
12155;SDS011;6141;49.092;8.516;2023-07-28T12:14:32;3.37;;;2.80;;
12155;SDS011;6141;49.092;8.516;2023-07-28T12:17:06;4.47;;;2.63;;
12155;SDS011;6141;49.092;8.516;2023-07-28T12:19:42;2.90;;;2.60;;
12155;SDS011;6141;49.092;8.516;2023-07-28T12:22:23;4.97;;;2.60;;
12155;SDS011;6141;49.092;8.516;2023-07-28T12:24:51;2.97;;;2.67;;
12155;SDS011;6141;49.092;8.516;2023-07-28T12:27:21;2.60;;;2.40;;
12155;SDS011;6141;49.092;8.516;2023-07-28T12:29:58;4.03;;;2.30;;
12155;SDS011;6141;49.092;8.516;2023-07-28T12:32:30;2.63;;;2.43;;
12155;SDS011;6141;49.092;8.516;2023-07-28T12:35:01;4.00;;;3.10;;
12155;SDS011;6141;49.092;8.516;2023-07-28T12:37:33;3.00;;;2.70;;
12155;SDS011;6141;49.092;8.516;2023-07-28T12:40:05;4.17;;;2.97;;
12155;SDS011;6141;49.092;8.516;2023-07-28T12:42:36;4.47;;;2.70;;
12155;SDS011;6141;49.092;8.516;2023-07-28T12:45:07;3.27;;;2.70;;
12155;SDS011;6141;49.092;8.516;2023-07-28T12:47:40;3.50;;;3.20;;
12155;SDS011;6141;49.092;8.516;2023-07-28T12:50:08;2.83;;;2.57;;
12155;SDS011;6141;49.092;8.516;2023-07-28T12:52:40;3.17;;;2.97;;
12155;SDS011;6141;49.092;8.516;2023-07-28T12:55:11;5.30;;;3.20;;
12155;SDS011;6141;49.092;8.516;2023-07-28T12:57:42;3.07;;;2.83;;
12155;SDS011;6141;49.092;8.516;2023-07-28T13:00:11;2.77;;;2.53;;
12155;SDS011;6141;49.092;8.516;2023-07-28T13:02:43;3.47;;;2.80;;
12155;SDS011;6141;49.092;8.516;2023-07-28T13:05:13;3.07;;;2.77;;
12155;SDS011;6141;49.092;8.516;2023-07-28T13:07:43;4.00;;;2.83;;
12155;SDS011;6141;49.092;8.516;2023-07-28T13:10:14;3.43;;;2.67;;
12155;SDS011;6141;49.092;8.516;2023-07-28T13:12:47;3.20;;;2.90;;
12155;SDS011;6141;49.092;8.516;2023-07-28T13:15:16;3.53;;;2.60;;
12155;SDS011;6141;49.092;8.516;2023-07-28T13:17:44;2.70;;;2.50;;
12155;SDS011;6141;49.092;8.516;2023-07-28T13:20:12;4.10;;;3.13;;
12155;SDS011;6141;49.092;8.516;2023-07-28T13:22:40;3.50;;;3.20;;
12155;SDS011;6141;49.092;8.516;2023-07-28T13:25:08;4.00;;;3.07;;
12155;SDS011;6141;49.092;8.516;2023-07-28T13:27:36;3.47;;;3.07;;
12155;SDS011;6141;49.092;8.516;2023-07-28T13:30:07;3.50;;;3.20;;
12155;SDS011;6141;49.092;8.516;2023-07-28T13:32:35;3.50;;;2.80;;
12155;SDS011;6141;49.092;8.516;2023-07-28T13:35:04;5.17;;;2.83;;
12155;SDS011;6141;49.092;8.516;2023-07-28T13:37:33;3.40;;;3.10;;
12155;SDS011;6141;49.092;8.516;2023-07-28T13:40:01;3.30;;;3.00;;
12155;SDS011;6141;49.092;8.516;2023-07-28T13:42:30;4.10;;;3.00;;
12155;SDS011;6141;49.092;8.516;2023-07-28T13:44:59;3.27;;;2.97;;
12155;SDS011;6141;49.092;8.516;2023-07-28T13:47:29;4.13;;;3.23;;
12155;SDS011;6141;49.092;8.516;2023-07-28T13:49:57;3.00;;;2.80;;
12155;SDS011;6141;49.092;8.516;2023-07-28T13:52:25;4.53;;;3.40;;
12155;SDS011;6141;49.092;8.516;2023-07-28T13:54:53;3.37;;;3.07;;
12155;SDS011;6141;49.092;8.516;2023-07-28T13:57:24;3.27;;;2.90;;
12155;SDS011;6141;49.092;8.516;2023-07-28T13:59:53;3.30;;;3.00;;
12155;SDS011;6141;49.092;8.516;2023-07-28T14:02:21;3.77;;;3.20;;
12155;SDS011;6141;49.092;8.516;2023-07-28T14:04:51;3.20;;;2.67;;
12155;SDS011;6141;49.092;8.516;2023-07-28T14:07:19;2.80;;;2.50;;
12155;SDS011;6141;49.092;8.516;2023-07-28T14:09:47;3.83;;;2.57;;
12155;SDS011;6141;49.092;8.516;2023-07-28T14:12:15;4.33;;;2.83;;
12155;SDS011;6141;49.092;8.516;2023-07-28T14:14:44;3.17;;;2.37;;
12155;SDS011;6141;49.092;8.516;2023-07-28T14:17:12;3.83;;;2.50;;
12155;SDS011;6141;49.092;8.516;2023-07-28T14:19:41;2.80;;;2.60;;
12155;SDS011;6141;49.092;8.516;2023-07-28T14:22:10;3.53;;;2.90;;
12155;SDS011;6141;49.092;8.516;2023-07-28T14:24:39;3.07;;;2.80;;
12155;SDS011;6141;49.092;8.516;2023-07-28T14:27:07;2.90;;;2.70;;
12155;SDS011;6141;49.092;8.516;2023-07-28T14:29:35;4.00;;;2.80;;
12155;SDS011;6141;49.092;8.516;2023-07-28T14:32:03;2.80;;;2.50;;
12155;SDS011;6141;49.092;8.516;2023-07-28T14:34:32;3.00;;;2.70;;
12155;SDS011;6141;49.092;8.516;2023-07-28T14:37:03;4.43;;;2.97;;
12155;SDS011;6141;49.092;8.516;2023-07-28T14:39:33;3.37;;;2.60;;
12155;SDS011;6141;49.092;8.516;2023-07-28T14:42:02;2.97;;;2.73;;
12155;SDS011;6141;49.092;8.516;2023-07-28T14:44:30;2.70;;;2.50;;
12155;SDS011;6141;49.092;8.516;2023-07-28T14:46:58;4.07;;;2.87;;
12155;SDS011;6141;49.092;8.516;2023-07-28T14:49:26;3.83;;;2.37;;
12155;SDS011;6141;49.092;8.516;2023-07-28T14:51:55;2.90;;;2.60;;
12155;SDS011;6141;49.092;8.516;2023-07-28T14:54:23;3.27;;;2.70;;
12155;SDS011;6141;49.092;8.516;2023-07-28T14:56:52;2.90;;;2.60;;
12155;SDS011;6141;49.092;8.516;2023-07-28T14:59:21;3.27;;;2.17;;
12155;SDS011;6141;49.092;8.516;2023-07-28T15:01:49;3.27;;;2.30;;
12155;SDS011;6141;49.092;8.516;2023-07-28T15:04:17;2.90;;;2.60;;
12155;SDS011;6141;49.092;8.516;2023-07-28T15:06:45;2.23;;;2.03;;
12155;SDS011;6141;49.092;8.516;2023-07-28T15:09:13;3.40;;;2.43;;
12155;SDS011;6141;49.092;8.516;2023-07-28T15:11:45;2.67;;;2.47;;
12155;SDS011;6141;49.092;8.516;2023-07-28T15:14:14;2.57;;;2.37;;
12155;SDS011;6141;49.092;8.516;2023-07-28T15:16:43;2.57;;;2.37;;